Time;durP1;ratioP1;P1;durP2;ratioP2;P2;SDS_P1;SDS_P2;PMS_P1;PMS_P2;Temp;Humidity;BMP_temperature;BMP_pressure;BME280_temperature;BME280_humidity;BME280_pressure;Samples;Min_cycle;Max_cycle;Signal;HPM_P1;HPM_P2
2022/09/16 00:01:24;;;;;;;8.90;1.50;;;13.70;99.90;;;;;;5093126;28;20603;-56
2022/09/16 00:03:54;;;;;;;12.23;1.60;;;13.70;99.90;;;;;;5092912;28;20201;-55
2022/09/16 00:06:26;;;;;;;9.75;1.38;;;13.80;99.90;;;;;;5091433;28;20671;-56
2022/09/16 00:08:59;;;;;;;9.90;1.10;;;13.80;99.90;;;;;;5089416;28;20591;-55
2022/09/16 00:11:26;;;;;;;11.45;1.38;;;13.80;99.90;;;;;;5103811;28;20621;-54
2022/09/16 00:13:52;;;;;;;7.50;1.73;;;13.80;99.90;;;;;;5107678;28;20653;-53
2022/09/16 00:16:21;;;;;;;12.80;1.75;;;13.80;99.90;;;;;;5093082;28;20182;-53
2022/09/16 00:18:47;;;;;;;8.45;1.20;;;13.80;99.90;;;;;;5074743;28;20692;-49
2022/09/16 00:21:13;;;;;;;8.52;1.30;;;13.70;99.90;;;;;;5075254;28;20547;-51
2022/09/16 00:23:39;;;;;;;10.82;1.30;;;13.70;99.90;;;;;;5092489;28;20200;-52
2022/09/16 00:26:05;;;;;;;7.45;1.30;;;13.70;99.90;;;;;;5088630;28;20630;-51
2022/09/16 00:28:31;;;;;;;9.38;1.27;;;13.70;99.90;;;;;;5093124;28;20622;-53
2022/09/16 00:31:00;;;;;;;10.55;1.20;;;13.70;99.90;;;;;;5092572;28;20646;-50
2022/09/16 00:33:27;;;;;;;5.43;1.15;;;13.60;99.90;;;;;;5092627;28;20181;-49
2022/09/16 00:36:09;;;;;;;8.02;1.10;;;13.60;99.90;;;;;;5070497;28;20206;-50
2022/09/16 00:38:34;;;;;;;6.90;1.20;;;13.60;99.90;;;;;;5091988;28;20230;-50
2022/09/16 00:41:00;;;;;;;2.38;0.93;;;13.60;99.90;;;;;;5092966;28;20209;-50
2022/09/16 00:43:26;;;;;;;5.47;0.90;;;13.60;99.90;;;;;;5092519;28;20235;-48
2022/09/16 00:46:00;;;;;;;7.30;1.05;;;13.60;99.90;;;;;;5070763;28;20953;-45
2022/09/16 00:48:29;;;;;;;3.72;0.70;;;13.60;99.90;;;;;;5091855;28;20182;-46
2022/09/16 00:51:02;;;;;;;8.70;1.05;;;13.60;99.90;;;;;;5075089;28;20178;-45
2022/09/16 00:53:33;;;;;;;3.92;0.90;;;13.60;99.90;;;;;;5093232;28;20606;-46
2022/09/16 00:56:01;;;;;;;12.32;1.10;;;13.60;99.90;;;;;;5092275;28;20188;-51
2022/09/16 00:58:38;;;;;;;7.18;1.50;;;13.60;99.90;;;;;;5096824;28;20173;-47
2022/09/16 01:01:04;;;;;;;9.02;1.27;;;13.60;99.90;;;;;;5097231;28;20660;-52
2022/09/16 01:03:34;;;;;;;8.05;1.05;;;13.60;99.90;;;;;;5095962;28;20630;-51
2022/09/16 01:05:59;;;;;;;8.65;1.23;;;13.70;99.90;;;;;;5076290;28;20174;-47
2022/09/16 01:08:25;;;;;;;11.77;1.00;;;13.70;99.90;;;;;;5088893;28;21979;-47
2022/09/16 01:10:51;;;;;;;8.70;1.63;;;13.70;99.90;;;;;;5083618;28;20189;-49
2022/09/16 01:13:17;;;;;;;11.05;1.20;;;13.70;99.90;;;;;;5116901;28;20172;-52
2022/09/16 01:15:50;;;;;;;10.60;1.30;;;13.80;99.90;;;;;;5099034;28;20181;-47
2022/09/16 01:18:30;;;;;;;11.98;1.27;;;13.80;99.90;;;;;;5094694;28;20235;-48
2022/09/16 01:20:59;;;;;;;11.95;1.40;;;13.80;99.90;;;;;;5096369;28;20194;-48
2022/09/16 01:23:45;;;;;;;8.90;1.10;;;13.80;99.90;;;;;;5077932;28;20205;-48
2022/09/16 01:26:30;;;;;;;11.13;1.20;;;13.80;99.90;;;;;;5096712;28;20166;-50
2022/09/16 01:29:19;;;;;;;10.77;1.92;;;13.90;99.90;;;;;;5094274;28;20185;-49
2022/09/16 01:32:06;;;;;;;7.25;1.67;;;13.90;99.90;;;;;;5094543;28;20182;-53
2022/09/16 01:34:40;;;;;;;9.73;1.50;;;13.90;99.90;;;;;;5089805;28;20204;-54
2022/09/16 01:37:19;;;;;;;8.07;1.40;;;13.90;99.90;;;;;;5096503;28;20609;-49
2022/09/16 01:39:57;;;;;;;8.00;1.40;;;13.80;99.90;;;;;;5095859;28;20221;-50
2022/09/16 01:42:54;;;;;;;10.63;1.00;;;13.80;99.90;;;;;;5096516;28;20170;-46
2022/09/16 01:45:57;;;;;;;6.20;0.90;;;13.60;99.90;;;;;;5090253;28;20198;-49
2022/09/16 01:48:33;;;;;;;9.75;1.42;;;13.60;99.90;;;;;;5094409;28;20548;-49
2022/09/16 01:51:11;;;;;;;10.00;1.38;;;13.50;99.90;;;;;;5096646;28;20162;-48
2022/09/16 01:53:47;;;;;;;6.05;1.08;;;13.50;99.90;;;;;;5095473;28;20174;-47
2022/09/16 01:56:19;;;;;;;6.55;1.30;;;13.50;99.90;;;;;;5094373;28;20205;-48
2022/09/16 01:59:08;;;;;;;7.03;1.30;;;13.50;99.90;;;;;;5095555;28;20181;-48
2022/09/16 02:01:43;;;;;;;11.27;1.20;;;13.50;99.90;;;;;;5095841;28;20264;-47
2022/09/16 02:04:15;;;;;;;7.47;1.30;;;13.50;99.90;;;;;;5095118;28;20278;-51
2022/09/16 02:06:44;;;;;;;14.57;1.40;;;13.50;99.90;;;;;;5089902;28;20173;-48
2022/09/16 02:09:18;;;;;;;10.15;1.20;;;13.50;99.90;;;;;;5095272;28;20247;-45
2022/09/16 02:11:49;;;;;;;13.63;1.23;;;13.60;99.90;;;;;;5096234;28;20165;-52
2022/09/16 02:14:20;;;;;;;6.50;1.02;;;13.60;99.90;;;;;;5095975;28;20193;-51
2022/09/16 02:16:53;;;;;;;8.32;1.13;;;13.60;99.90;;;;;;5094804;28;20188;-48
2022/09/16 02:19:23;;;;;;;5.25;1.20;;;13.60;99.90;;;;;;5095206;28;20616;-48
2022/09/16 02:21:52;;;;;;;4.90;0.95;;;13.60;99.90;;;;;;5095259;28;20166;-51
2022/09/16 02:24:21;;;;;;;8.15;1.58;;;13.60;99.90;;;;;;5092081;28;20253;-54
2022/09/16 02:26:58;;;;;;;9.55;1.50;;;13.60;99.90;;;;;;5091099;28;20177;-52
2022/09/16 02:29:36;;;;;;;8.55;1.20;;;13.60;99.90;;;;;;5095517;28;20166;-48
2022/09/16 02:32:06;;;;;;;12.82;1.60;;;13.60;99.90;;;;;;5095388;28;20631;-49
2022/09/16 02:34:36;;;;;;;15.20;1.83;;;13.60;99.90;;;;;;5093845;28;20323;-55
2022/09/16 02:37:10;;;;;;;8.02;1.20;;;13.60;99.90;;;;;;5089160;28;20182;-48
2022/09/16 02:39:41;;;;;;;7.28;0.98;;;13.60;99.90;;;;;;5094507;28;20222;-49
2022/09/16 02:42:07;;;;;;;4.72;1.00;;;13.60;99.90;;;;;;5095085;28;20216;-50
2022/09/16 02:44:33;;;;;;;4.70;1.33;;;13.50;99.90;;;;;;5076354;28;20598;-46
2022/09/16 02:47:30;;;;;;;2.95;0.93;;;13.50;99.90;;;;;;5090349;28;20235;-48
2022/09/16 02:50:02;;;;;;;8.63;1.00;;;13.50;99.90;;;;;;5079589;28;20319;-49
2022/09/16 02:52:54;;;;;;;8.13;1.20;;;13.40;99.90;;;;;;5094413;28;20166;-48
2022/09/16 02:55:32;;;;;;;7.93;1.10;;;13.40;99.90;;;;;;5093068;28;20176;-51
2022/09/16 02:57:57;;;;;;;7.60;0.90;;;13.40;99.90;;;;;;5074298;28;20660;-49
2022/09/16 03:00:24;;;;;;;6.32;0.85;;;13.40;99.90;;;;;;5078417;28;20194;-47
2022/09/16 03:02:52;;;;;;;3.95;1.20;;;13.40;99.90;;;;;;5089814;28;20224;-48
2022/09/16 03:05:18;;;;;;;12.02;1.30;;;13.30;99.90;;;;;;5094377;28;20177;-47
2022/09/16 03:07:44;;;;;;;8.43;0.95;;;13.30;99.90;;;;;;5094868;28;20178;-46
2022/09/16 03:10:13;;;;;;;7.22;1.20;;;13.30;99.90;;;;;;5094036;28;20170;-50
2022/09/16 03:13:08;;;;;;;8.52;1.10;;;13.30;99.90;;;;;;5092269;28;20174;-47
2022/09/16 03:16:06;;;;;;;7.22;1.35;;;13.40;99.90;;;;;;5089618;28;20193;-49
2022/09/16 03:18:52;;;;;;;10.27;1.20;;;13.40;99.90;;;;;;5093700;28;20188;-48
2022/09/16 03:21:28;;;;;;;10.90;1.48;;;13.40;99.90;;;;;;5080154;28;20274;-49
2022/09/16 03:23:59;;;;;;;5.15;1.10;;;13.50;99.90;;;;;;5089505;28;20201;-49
2022/09/16 03:26:48;;;;;;;8.63;1.67;;;13.50;99.90;;;;;;5086132;28;20206;-50
2022/09/16 03:29:27;;;;;;;8.00;1.30;;;13.60;99.90;;;;;;5093731;28;20174;-50
2022/09/16 03:32:06;;;;;;;8.40;1.08;;;13.60;99.90;;;;;;5094259;28;20158;-46
2022/09/16 03:34:42;;;;;;;8.07;1.48;;;13.60;99.90;;;;;;5079802;28;20696;-44
2022/09/16 03:37:13;;;;;;;7.78;1.05;;;13.50;99.90;;;;;;5074081;28;20630;-47
2022/09/16 03:39:41;;;;;;;7.75;1.13;;;13.50;99.90;;;;;;5091165;28;20685;-49
2022/09/16 03:42:10;;;;;;;3.55;0.82;;;13.50;99.90;;;;;;5094073;28;20223;-48
2022/09/16 03:44:39;;;;;;;6.28;1.23;;;13.50;99.90;;;;;;5087542;28;20220;-47
2022/09/16 03:47:06;;;;;;;5.82;0.88;;;13.50;99.90;;;;;;5088777;28;20728;-48
2022/09/16 03:49:32;;;;;;;3.90;0.60;;;13.50;99.90;;;;;;5093432;28;20188;-49
2022/09/16 03:51:59;;;;;;;3.40;0.80;;;13.50;99.90;;;;;;5093196;28;20261;-47
2022/09/16 03:54:25;;;;;;;6.10;1.10;;;13.40;99.90;;;;;;5091434;28;20227;-48
2022/09/16 03:56:50;;;;;;;13.68;1.00;;;13.50;99.90;;;;;;5058768;28;20181;-45
2022/09/16 03:59:16;;;;;;;8.13;1.13;;;13.40;99.90;;;;;;5093412;28;20170;-47
2022/09/16 04:01:42;;;;;;;7.00;1.00;;;13.40;99.90;;;;;;5059031;28;20185;-46
2022/09/16 04:04:08;;;;;;;8.45;1.38;;;13.40;99.90;;;;;;5072325;28;20561;-45
2022/09/16 04:06:34;;;;;;;12.50;1.75;;;13.50;99.90;;;;;;5071021;28;20185;-44
2022/09/16 04:09:05;;;;;;;16.70;1.50;;;13.50;99.90;;;;;;5093646;28;20209;-47
2022/09/16 04:11:31;;;;;;;10.77;1.40;;;13.50;99.90;;;;;;5104082;28;20196;-48
2022/09/16 04:13:57;;;;;;;7.82;1.15;;;13.50;99.90;;;;;;5084949;28;20186;-53
2022/09/16 04:16:24;;;;;;;9.35;1.80;;;13.50;99.90;;;;;;5073737;28;20189;-49
2022/09/16 04:18:49;;;;;;;8.48;1.40;;;13.50;99.90;;;;;;5093394;28;20182;-46
2022/09/16 04:21:16;;;;;;;4.82;1.30;;;13.50;99.90;;;;;;5093077;28;20224;-45
2022/09/16 04:23:41;;;;;;;11.73;1.60;;;13.50;99.90;;;;;;5093447;28;20235;-50
2022/09/16 04:26:09;;;;;;;10.45;1.48;;;13.50;99.90;;;;;;5091557;28;20181;-45
2022/09/16 04:28:34;;;;;;;12.50;1.50;;;13.50;99.90;;;;;;5089222;28;20166;-44
2022/09/16 04:31:07;;;;;;;9.95;1.50;;;13.50;99.90;;;;;;5094524;28;20277;-48
2022/09/16 04:33:34;;;;;;;9.95;1.85;;;13.40;99.90;;;;;;5096712;28;20197;-45
2022/09/16 04:36:03;;;;;;;10.18;1.45;;;13.40;99.90;;;;;;5097710;28;20277;-48
2022/09/16 04:38:29;;;;;;;10.30;1.50;;;13.40;99.90;;;;;;5091511;28;20240;-46
2022/09/16 04:41:03;;;;;;;9.63;1.20;;;13.40;99.90;;;;;;5095974;28;20234;-52
2022/09/16 04:43:29;;;;;;;16.00;1.40;;;13.40;99.90;;;;;;5082660;28;20996;-46
2022/09/16 04:45:55;;;;;;;16.65;1.60;;;13.40;99.90;;;;;;5077179;28;20554;-45
2022/09/16 04:48:21;;;;;;;11.75;1.40;;;13.40;99.90;;;;;;5086407;28;20659;-47
2022/09/16 04:50:47;;;;;;;13.18;1.67;;;13.30;99.90;;;;;;5091351;28;20190;-55
2022/09/16 04:53:13;;;;;;;11.07;1.25;;;13.40;99.90;;;;;;5097002;28;20174;-49
2022/09/16 04:55:38;;;;;;;12.15;1.48;;;13.40;99.90;;;;;;5096603;28;20170;-51
2022/09/16 05:00:03;;;;;;;9.98;1.40;;;13.30;99.90;;;;;;5057450;28;20328;-51
2022/09/16 05:02:29;;;;;;;14.20;1.45;;;13.40;99.90;;;;;;5043950;28;20201;-63
2022/09/16 05:04:55;;;;;;;14.20;1.48;;;13.40;99.90;;;;;;5027482;28;20556;-45
2022/09/16 05:07:21;;;;;;;14.48;1.60;;;13.50;99.90;;;;;;5029669;28;20183;-46
2022/09/16 05:09:46;;;;;;;12.57;1.20;;;13.50;99.90;;;;;;5030733;28;20184;-50
2022/09/16 05:12:12;;;;;;;5.88;1.10;;;13.50;99.90;;;;;;5053851;28;20179;-46
2022/09/16 05:14:38;;;;;;;6.65;1.00;;;13.50;99.90;;;;;;5043813;28;20704;-47
2022/09/16 05:17:04;;;;;;;11.30;1.00;;;13.40;99.90;;;;;;5047524;28;20226;-42
2022/09/16 05:19:29;;;;;;;8.50;1.13;;;13.40;99.90;;;;;;5043973;28;20686;-43
2022/09/16 05:21:55;;;;;;;6.13;1.30;;;13.30;99.90;;;;;;5048774;28;20211;-46
2022/09/16 05:24:21;;;;;;;5.72;1.17;;;13.30;99.90;;;;;;5049899;28;20180;-44
2022/09/16 05:26:47;;;;;;;11.18;1.42;;;13.30;99.90;;;;;;5050239;28;20171;-42
2022/09/16 05:29:14;;;;;;;6.65;1.20;;;13.30;99.90;;;;;;5048029;28;20194;-45
2022/09/16 05:31:42;;;;;;;5.43;0.93;;;13.20;99.90;;;;;;5048341;28;20225;-46
2022/09/16 05:34:13;;;;;;;5.93;1.10;;;13.30;99.90;;;;;;5035710;28;20188;-45
2022/09/16 05:36:40;;;;;;;7.05;0.90;;;13.30;99.90;;;;;;5030473;28;20172;-43
2022/09/16 05:39:06;;;;;;;4.07;0.90;;;13.20;99.90;;;;;;5038265;28;20222;-44
2022/09/16 05:41:32;;;;;;;9.40;1.48;;;13.30;99.90;;;;;;5047928;28;20226;-46
2022/09/16 05:43:59;;;;;;;7.15;1.83;;;13.30;99.90;;;;;;5049654;28;20187;-44
2022/09/16 05:46:26;;;;;;;8.43;1.60;;;13.30;99.90;;;;;;5049718;28;20207;-44
2022/09/16 05:48:52;;;;;;;10.10;1.50;;;13.30;99.90;;;;;;5048439;28;20631;-44
2022/09/16 05:51:21;;;;;;;13.23;1.98;;;13.30;99.90;;;;;;5044373;28;20194;-43
2022/09/16 05:53:49;;;;;;;7.97;1.48;;;13.40;99.90;;;;;;5047942;28;20172;-43
2022/09/16 05:56:24;;;;;;;6.57;1.50;;;13.40;99.90;;;;;;5049681;28;20186;-44
2022/09/16 05:58:52;;;;;;;7.32;1.60;;;13.40;99.90;;;;;;5048051;28;20237;-44
2022/09/16 06:01:20;;;;;;;10.18;1.73;;;13.30;99.90;;;;;;5045343;28;20179;-46
2022/09/16 06:03:48;;;;;;;12.27;1.88;;;13.30;99.90;;;;;;5039461;28;20201;-44
2022/09/16 06:06:49;;;;;;;8.38;1.92;;;13.30;99.90;;;;;;5041793;28;20240;-46
2022/09/16 06:09:21;;;;;;;9.90;1.70;;;13.20;99.90;;;;;;5028801;28;20199;-44
2022/09/16 06:11:49;;;;;;;9.75;1.92;;;13.20;99.90;;;;;;5039320;28;20194;-44
2022/09/16 06:14:16;;;;;;;11.60;1.95;;;13.20;99.90;;;;;;5042475;28;20546;-43
2022/09/16 06:16:42;;;;;;;9.38;1.67;;;13.20;99.90;;;;;;5035566;28;20183;-43
2022/09/16 06:19:16;;;;;;;8.32;1.75;;;13.20;99.90;;;;;;5031030;28;20210;-44
2022/09/16 06:21:42;;;;;;;11.35;1.95;;;13.20;99.90;;;;;;5027666;28;20194;-45
2022/09/16 06:24:09;;;;;;;13.77;2.20;;;13.30;99.90;;;;;;5025769;28;20644;-46
2022/09/16 06:26:37;;;;;;;14.40;1.83;;;13.30;99.90;;;;;;5049493;28;20282;-47
2022/09/16 06:29:05;;;;;;;14.82;2.67;;;13.30;99.90;;;;;;5026950;28;20287;-43
2022/09/16 06:31:31;;;;;;;10.57;1.55;;;13.30;99.90;;;;;;5025154;28;20184;-43
2022/09/16 06:33:57;;;;;;;8.45;1.30;;;13.30;99.90;;;;;;5032525;28;20231;-43
2022/09/16 06:36:35;;;;;;;6.38;1.23;;;13.40;99.90;;;;;;5035648;28;20188;-41
2022/09/16 06:39:01;;;;;;;9.40;1.23;;;13.40;99.90;;;;;;5021932;28;20200;-47
2022/09/16 06:41:27;;;;;;;5.38;1.10;;;13.50;99.90;;;;;;5018844;28;20190;-44
2022/09/16 06:43:53;;;;;;;8.68;1.17;;;13.50;99.90;;;;;;5029540;28;20192;-45
2022/09/16 06:46:21;;;;;;;12.52;1.80;;;13.60;99.90;;;;;;5034199;28;20215;-43
2022/09/16 06:48:49;;;;;;;8.65;1.52;;;13.60;99.90;;;;;;5025997;28;20195;-45
2022/09/16 06:51:23;;;;;;;12.35;1.60;;;13.70;99.90;;;;;;5020236;28;20303;-42
2022/09/16 06:53:50;;;;;;;17.83;1.60;;;13.80;99.90;;;;;;5020175;28;20176;-45
2022/09/16 06:56:18;;;;;;;6.15;1.23;;;13.90;99.90;;;;;;5031473;28;20183;-45
2022/09/16 06:58:47;;;;;;;9.90;1.65;;;14.00;99.90;;;;;;5041659;28;20235;-48
2022/09/16 07:01:24;;;;;;;10.95;1.60;;;14.10;99.90;;;;;;5043700;28;20189;-47
2022/09/16 07:03:51;;;;;;;9.75;1.27;;;14.20;99.90;;;;;;5038548;28;20207;-43
2022/09/16 07:06:19;;;;;;;8.93;1.38;;;14.20;99.90;;;;;;5029751;28;20198;-48
2022/09/16 07:08:45;;;;;;;5.30;1.00;;;14.20;99.90;;;;;;5052362;28;20191;-40
2022/09/16 07:11:19;;;;;;;8.18;1.58;;;14.20;99.90;;;;;;5059504;28;20589;-44
2022/09/16 07:13:48;;;;;;;9.77;1.35;;;14.10;99.90;;;;;;5051097;28;20654;-46
2022/09/16 07:16:16;;;;;;;8.13;1.45;;;14.00;99.90;;;;;;5053142;28;20675;-49
2022/09/16 07:18:42;;;;;;;12.63;2.00;;;13.90;99.90;;;;;;5033185;28;20217;-45
2022/09/16 07:21:18;;;;;;;9.10;1.77;;;13.80;99.90;;;;;;5048781;28;20189;-43
2022/09/16 07:23:45;;;;;;;11.57;2.10;;;13.80;99.90;;;;;;5053055;28;20191;-44
2022/09/16 07:26:16;;;;;;;11.43;2.15;;;13.70;99.90;;;;;;5052182;28;20179;-46
2022/09/16 07:28:45;;;;;;;12.73;1.98;;;13.70;99.90;;;;;;5052810;28;20526;-46
2022/09/16 07:31:13;;;;;;;9.60;2.00;;;13.70;99.90;;;;;;5051346;28;20514;-44
2022/09/16 07:33:42;;;;;;;9.68;2.13;;;13.60;99.90;;;;;;5037415;28;20270;-46
2022/09/16 07:36:10;;;;;;;10.73;2.33;;;13.60;99.90;;;;;;5046840;28;20175;-47
2022/09/16 07:38:36;;;;;;;12.02;2.17;;;13.60;99.90;;;;;;5052778;28;20203;-46
2022/09/16 07:41:06;;;;;;;14.18;1.88;;;13.70;99.90;;;;;;5054472;28;20225;-45
2022/09/16 07:43:32;;;;;;;16.77;2.10;;;13.70;99.90;;;;;;5051895;28;20596;-46
2022/09/16 07:45:58;;;;;;;12.70;2.05;;;13.80;99.90;;;;;;5053686;28;20180;-45
2022/09/16 07:48:24;;;;;;;13.93;2.00;;;13.90;99.90;;;;;;5047435;28;20195;-42
2022/09/16 07:50:58;;;;;;;13.88;1.98;;;14.00;99.90;;;;;;5033830;28;20168;-46
2022/09/16 07:53:26;;;;;;;11.65;1.75;;;14.10;99.90;;;;;;5037468;28;20535;-50
2022/09/16 07:55:53;;;;;;;9.05;1.88;;;14.10;99.90;;;;;;5036109;28;20195;-46
2022/09/16 07:58:19;;;;;;;13.50;1.90;;;14.20;99.90;;;;;;5018543;28;21145;-44
2022/09/16 08:00:47;;;;;;;10.82;1.73;;;14.20;99.90;;;;;;5044852;28;20215;-44
2022/09/16 08:03:13;;;;;;;12.77;1.60;;;14.30;99.90;;;;;;5030832;28;20184;-44
2022/09/16 08:05:39;;;;;;;8.25;1.67;;;14.40;99.90;;;;;;5033881;28;20635;-45
2022/09/16 08:08:05;;;;;;;13.38;1.55;;;14.50;99.90;;;;;;5025982;28;20188;-43
2022/09/16 08:10:30;;;;;;;12.23;1.33;;;14.50;99.90;;;;;;5016572;28;20185;-43
2022/09/16 08:12:56;;;;;;;10.88;1.48;;;14.50;99.90;;;;;;5020429;28;20562;-43
2022/09/16 08:15:22;;;;;;;13.43;1.42;;;14.50;99.90;;;;;;5032815;28;20209;-42
2022/09/16 08:17:48;;;;;;;7.57;1.25;;;14.50;99.90;;;;;;5030335;28;20184;-45
2022/09/16 08:20:13;;;;;;;8.13;1.45;;;14.50;99.90;;;;;;5019723;28;20315;-48
2022/09/16 08:22:39;;;;;;;10.75;1.35;;;14.60;99.90;;;;;;5029234;28;20195;-45
2022/09/16 08:25:05;;;;;;;7.15;1.10;;;14.70;99.90;;;;;;5032289;28;20671;-45
2022/09/16 08:27:34;;;;;;;7.63;1.15;;;14.80;99.90;;;;;;5030920;28;20192;-47
2022/09/16 08:30:00;;;;;;;5.30;1.42;;;14.80;99.90;;;;;;5030094;28;20180;-48
2022/09/16 08:32:26;;;;;;;4.60;1.20;;;14.80;99.90;;;;;;5031931;28;20639;-48
2022/09/16 08:34:52;;;;;;;8.52;0.93;;;14.80;99.90;;;;;;5031297;28;20231;-44
2022/09/16 08:37:18;;;;;;;8.25;1.25;;;14.80;99.90;;;;;;5032139;28;20176;-46
2022/09/16 08:39:45;;;;;;;10.02;1.27;;;14.80;99.90;;;;;;5030782;28;20221;-46
2022/09/16 08:42:35;;;;;;;7.13;1.25;;;14.80;99.90;;;;;;5022204;28;20219;-44
2022/09/16 08:45:04;;;;;;;8.70;1.50;;;14.80;99.90;;;;;;5030269;28;20203;-49
2022/09/16 08:47:47;;;;;;;6.13;1.20;;;14.80;99.90;;;;;;5029763;28;20186;-46
2022/09/16 08:50:28;;;;;;;7.10;1.10;;;14.90;99.90;;;;;;5030279;28;20187;-44
2022/09/16 08:52:57;;;;;;;6.30;1.45;;;15.00;99.90;;;;;;5027550;28;20171;-43
2022/09/16 08:55:34;;;;;;;8.20;1.30;;;15.10;99.90;;;;;;5018851;28;20280;-46
2022/09/16 08:58:19;;;;;;;8.30;1.40;;;15.20;99.90;;;;;;5024853;28;20300;-43
2022/09/16 09:00:50;;;;;;;10.93;1.60;;;15.20;99.90;;;;;;5047235;28;20198;-45
2022/09/16 09:03:37;;;;;;;8.73;1.70;;;15.30;99.90;;;;;;5050490;28;20179;-41
2022/09/16 09:06:20;;;;;;;7.38;1.50;;;15.30;99.90;;;;;;5042221;28;20715;-42
2022/09/16 09:09:18;;;;;;;12.65;1.60;;;15.20;99.90;;;;;;5041482;28;20178;-47
2022/09/16 09:12:04;;;;;;;9.63;1.25;;;15.30;99.90;;;;;;5037069;28;20267;-41
2022/09/16 09:14:59;;;;;;;12.75;1.20;;;15.30;99.90;;;;;;5037414;28;20182;-41
2022/09/16 09:17:44;;;;;;;7.32;0.93;;;15.20;99.90;;;;;;5050457;28;20217;-42
2022/09/16 09:20:25;;;;;;;8.32;1.23;;;15.20;99.90;;;;;;5050386;28;20277;-43
2022/09/16 09:23:03;;;;;;;9.20;1.50;;;15.10;99.90;;;;;;5051116;28;20696;-44
2022/09/16 09:25:47;;;;;;;10.30;1.50;;;15.10;99.90;;;;;;5032930;28;20172;-45
2022/09/16 09:28:16;;;;;;;6.88;1.52;;;15.10;99.90;;;;;;5047198;28;20183;-44
2022/09/16 09:30:59;;;;;;;10.38;1.30;;;15.20;99.90;;;;;;5050641;28;20615;-44
2022/09/16 09:33:48;;;;;;;11.82;1.63;;;15.20;99.90;;;;;;5037958;28;20230;-45
2022/09/16 09:36:24;;;;;;;9.15;1.40;;;15.40;99.90;;;;;;5033035;28;20168;-45
2022/09/16 09:39:18;;;;;;;5.18;1.15;;;15.50;99.90;;;;;;5039898;28;20203;-42
2022/09/16 09:42:01;;;;;;;5.38;0.95;;;15.50;99.90;;;;;;5049770;28;20276;-42
2022/09/16 09:45:11;;;;;;;5.75;1.00;;;15.50;99.90;;;;;;5044522;28;20253;-45
2022/09/16 09:47:42;;;;;;;7.90;1.10;;;15.50;99.90;;;;;;5009762;28;20214;-44
2022/09/16 09:50:17;;;;;;;5.65;1.10;;;15.40;99.90;;;;;;5054867;28;20273;-46
2022/09/16 09:53:22;;;;;;;8.77;1.50;;;15.40;99.90;;;;;;5052686;28;20170;-47
2022/09/16 09:55:56;;;;;;;5.18;1.02;;;15.50;99.90;;;;;;5055041;28;20175;-49
2022/09/16 09:58:34;;;;;;;4.57;0.88;;;15.40;99.90;;;;;;5054555;28;20229;-45
2022/09/16 10:01:00;;;;;;;7.30;0.93;;;15.30;99.90;;;;;;5054923;28;20175;-48
2022/09/16 10:03:28;;;;;;;5.00;1.00;;;15.10;99.90;;;;;;5047932;28;20190;-46
2022/09/16 10:05:54;;;;;;;6.40;1.10;;;14.90;99.90;;;;;;5041922;28;20182;-44
2022/09/16 10:08:19;;;;;;;7.03;1.40;;;14.70;99.90;;;;;;5052089;28;20237;-46
2022/09/16 10:10:56;;;;;;;5.57;1.30;;;14.60;99.90;;;;;;5060288;28;20550;-45
2022/09/16 10:13:24;;;;;;;6.22;1.40;;;14.50;99.90;;;;;;5051899;28;20631;-45
2022/09/16 10:16:05;;;;;;;6.95;1.30;;;14.50;99.90;;;;;;5048470;28;20179;-47
2022/09/16 10:18:32;;;;;;;7.20;1.60;;;14.50;99.90;;;;;;5040710;28;20197;-45
2022/09/16 10:21:08;;;;;;;9.70;1.75;;;14.50;99.90;;;;;;5054587;28;20264;-44
2022/09/16 10:23:34;;;;;;;20.88;3.83;;;14.40;99.90;;;;;;5054364;28;20183;-47
2022/09/16 10:26:17;;;;;;;14.38;2.05;;;14.30;99.90;;;;;;5055152;28;20196;-46
2022/09/16 10:29:01;;;;;;;9.57;1.95;;;14.20;99.90;;;;;;5052829;28;20322;-51
2022/09/16 10:31:35;;;;;;;17.92;1.98;;;14.10;99.90;;;;;;5041702;28;20187;-49
2022/09/16 10:34:11;;;;;;;11.65;2.60;;;14.00;99.90;;;;;;5052723;28;20179;-43
2022/09/16 10:36:37;;;;;;;11.93;2.08;;;14.00;99.90;;;;;;5053519;28;20186;-44
2022/09/16 10:39:03;;;;;;;12.52;2.30;;;14.00;99.90;;;;;;5053808;28;20631;-43
2022/09/16 10:41:44;;;;;;;15.60;2.50;;;14.00;99.90;;;;;;5024764;28;20293;-43
2022/09/16 10:44:30;;;;;;;18.83;2.70;;;13.90;99.90;;;;;;5045412;28;20214;-44
2022/09/16 10:47:17;;;;;;;20.77;2.22;;;13.90;99.90;;;;;;5035352;28;20221;-44
2022/09/16 10:49:47;;;;;;;32.22;3.53;;;14.00;99.90;;;;;;5050082;28;20625;-43
2022/09/16 10:52:16;;;;;;;27.17;3.05;;;14.00;99.90;;;;;;5042334;28;20179;-48
2022/09/16 10:54:43;;;;;;;23.50;2.95;;;14.10;99.90;;;;;;5053867;28;20544;-46
2022/09/16 10:57:27;;;;;;;10.57;2.40;;;14.20;99.90;;;;;;5038094;28;20176;-44
2022/09/16 11:00:13;;;;;;;12.82;2.60;;;14.30;99.90;;;;;;5051215;28;20260;-43
2022/09/16 11:02:57;;;;;;;12.25;2.42;;;14.40;99.90;;;;;;5051452;28;20397;-47
2022/09/16 11:06:02;;;;;;;15.48;2.58;;;14.60;99.90;;;;;;5054475;28;20179;-45
2022/09/16 11:08:54;;;;;;;17.40;2.70;;;14.70;99.90;;;;;;4983390;28;20223;-45
2022/09/16 11:11:57;;;;;;;17.25;2.42;;;14.80;99.90;;;;;;5054114;28;20178;-47
2022/09/16 11:15:00;;;;;;;15.68;2.30;;;14.80;99.90;;;;;;5042770;28;20210;-47
2022/09/16 11:17:50;;;;;;;15.25;2.45;;;14.90;99.90;;;;;;5054189;28;20167;-49
2022/09/16 11:20:15;;;;;;;22.75;2.42;;;15.10;99.90;;;;;;5040216;28;20258;-44
2022/09/16 11:23:20;;;;;;;20.88;2.50;;;15.10;99.90;;;;;;5049831;28;20266;-44
2022/09/16 11:25:48;;;;;;;18.20;2.03;;;15.20;99.90;;;;;;5012258;28;20275;-45
2022/09/16 11:28:32;;;;;;;13.23;2.00;;;15.40;99.90;;;;;;5009791;28;20677;-43
2022/09/16 11:31:20;;;;;;;14.23;2.28;;;15.60;99.90;;;;;;5017118;28;20765;-42
2022/09/16 11:34:07;;;;;;;19.20;2.30;;;15.90;99.90;;;;;;5052707;28;20286;-43
2022/09/16 11:36:48;;;;;;;16.73;2.10;;;16.10;99.90;;;;;;5054421;28;20174;-43
2022/09/16 11:39:40;;;;;;;15.43;2.22;;;16.40;99.90;;;;;;5052805;28;20608;-43
2022/09/16 11:42:09;;;;;;;20.25;2.10;;;16.50;99.90;;;;;;5041087;28;20175;-47
2022/09/16 11:44:38;;;;;;;11.45;1.90;;;16.50;99.90;;;;;;5042917;28;20187;-46
2022/09/16 11:47:28;;;;;;;10.23;1.92;;;16.50;99.90;;;;;;5053712;28;20698;-45
2022/09/16 11:50:12;;;;;;;11.48;1.77;;;16.50;99.90;;;;;;5052743;28;20655;-43
2022/09/16 11:53:23;;;;;;;7.70;1.33;;;16.40;99.90;;;;;;5040226;28;20194;-47
2022/09/16 11:56:26;;;;;;;8.77;1.85;;;16.40;99.90;;;;;;5031154;28;20231;-43
2022/09/16 11:58:59;;;;;;;10.50;1.60;;;16.30;99.90;;;;;;5052789;28;20277;-47
2022/09/16 12:01:45;;;;;;;12.82;1.58;;;16.30;99.90;;;;;;5052038;28;20187;-46
2022/09/16 12:04:31;;;;;;;11.90;2.20;;;16.30;99.90;;;;;;5042878;28;20236;-48
2022/09/16 12:07:00;;;;;;;10.88;1.80;;;16.30;99.90;;;;;;5036164;28;20171;-44
2022/09/16 12:09:39;;;;;;;12.65;2.03;;;16.40;99.90;;;;;;5051882;28;20266;-45
2022/09/16 12:12:22;;;;;;;16.98;2.38;;;16.50;99.90;;;;;;5052393;28;20382;-45
2022/09/16 12:14:58;;;;;;;9.50;1.65;;;16.70;99.90;;;;;;5041639;28;20801;-44
2022/09/16 12:17:28;;;;;;;18.77;2.20;;;16.80;99.40;;;;;;5049845;28;20665;-48
2022/09/16 12:20:04;;;;;;;9.90;2.10;;;17.00;99.10;;;;;;5052125;28;20217;-44
2022/09/16 12:22:41;;;;;;;9.70;1.63;;;17.10;98.50;;;;;;5053896;28;20163;-50
2022/09/16 12:25:28;;;;;;;8.13;1.45;;;17.30;98.00;;;;;;5036263;28;20784;-52
2022/09/16 12:28:03;;;;;;;13.52;1.55;;;17.50;96.80;;;;;;5043189;28;20245;-52
2022/09/16 12:30:36;;;;;;;7.35;1.50;;;17.50;94.80;;;;;;5052248;28;20200;-51
2022/09/16 12:33:16;;;;;;;11.98;1.58;;;17.50;94.20;;;;;;5051378;28;20186;-51
2022/09/16 12:35:58;;;;;;;8.13;1.63;;;17.50;94.40;;;;;;5037769;28;20668;-48
2022/09/16 12:38:24;;;;;;;17.08;2.10;;;17.40;93.60;;;;;;5039010;28;20380;-51
2022/09/16 12:41:16;;;;;;;7.57;1.67;;;17.40;93.90;;;;;;5053281;28;20179;-51
2022/09/16 12:43:48;;;;;;;8.73;1.67;;;17.40;92.10;;;;;;5051119;28;20179;-53
2022/09/16 12:46:22;;;;;;;15.43;2.15;;;17.50;94.10;;;;;;5040994;28;20183;-51
2022/09/16 12:49:25;;;;;;;8.75;1.90;;;17.80;94.20;;;;;;5047132;28;20193;-53
2022/09/16 12:52:20;;;;;;;12.02;1.45;;;17.90;93.60;;;;;;5053257;28;20623;-50
2022/09/16 12:55:07;;;;;;;9.95;1.80;;;18.00;92.80;;;;;;5051214;28;20190;-54
2022/09/16 12:57:46;;;;;;;12.35;1.95;;;18.00;92.40;;;;;;5050455;28;20186;-52
2022/09/16 13:00:24;;;;;;;12.95;1.85;;;18.00;92.60;;;;;;5051486;28;20700;-45
2022/09/16 13:03:04;;;;;;;8.55;1.48;;;18.10;92.30;;;;;;5052111;28;20623;-54
2022/09/16 13:05:37;;;;;;;9.57;1.67;;;18.20;92.20;;;;;;5042707;28;20557;-56
2022/09/16 13:08:29;;;;;;;10.15;1.58;;;18.30;92.20;;;;;;5039954;28;20202;-51
2022/09/16 13:11:02;;;;;;;10.68;1.40;;;18.20;92.30;;;;;;5045847;28;20178;-52
2022/09/16 13:13:41;;;;;;;10.02;1.67;;;18.30;92.30;;;;;;5055016;28;20263;-51
2022/09/16 13:16:08;;;;;;;7.57;1.63;;;18.40;90.50;;;;;;5033022;28;20262;-53
2022/09/16 13:18:45;;;;;;;5.72;1.35;;;18.50;91.50;;;;;;5050326;28;20679;-52